PWSweather.com
Personal Weather Stations
Station Observations
W0CHP
Plainview, MN 55694

Plainview, MN 55694

Lat: 44.16640472, Lon: -92.16882324

Elevation: 1155

Station Type: HW: WX Station Bridge, Raspberry Pi and RF (APRS) via 144.390 MHz. SW: Xastir, APRX, WeeWX and Linux.

http://wx.w0chp.net

Latest ConditionsUpdated 5:18:00 PM CDT Friday, Oct 18, 2019
Currently Today's Max Today's Min Today's Average
Temperature 64.1°F17.8°C 65.6°F18.7°C 40.9°F4.9°C 49.9°F9.9°C
Dew Point 49.5°F9.7°C 51.0°F10.6°C 38.2°F3.4°C 43.3°F6.3°C
Winds 9.0 mph SSW14.5 kmh SSW 13.6 mph -21.9 kmh - - 5.6 mph 9.0 kmh
Wind Gusts 10.0 mph16.1 kmh 19.0 mph30.6 kmh - -
Humidity 59% 93% 58% 80%
Pressure 29.72 in1006.4 mb 30.00 in1015.9 mb 29.72 in1006.4 mb -
Hour Temp Dew Point Humidity Winds Wind Gusts Pressure Precip Precip Rate Daily Precip Total
05:18 PM 64.1°F17.8°C 49.5°F9.7°C 59% 9.0 mph SSW14.5 kmh SSW 10.0 mph16.1 kmh 29.72 in1006.4 mb 0.00 in0.0 mm 0.00 in0.0 mm 0.00 in0.0 mm
05:12 PM 64.4°F18.0°C 49.3°F9.6°C 58% 6.9 mph S11.1 kmh S 12.0 mph19.3 kmh 29.72 in1006.4 mb 0.00 in0.0 mm 0.00 in0.0 mm 0.00 in0.0 mm
05:06 PM 64.4°F18.0°C 49.3°F9.6°C 58% 8.7 mph S14.0 kmh S 13.0 mph20.9 kmh 29.72 in1006.4 mb 0.00 in0.0 mm 0.00 in0.0 mm 0.00 in0.0 mm
05:00 PM 64.6°F18.1°C 49.5°F9.7°C 58% 8.7 mph S14.0 kmh S 13.0 mph20.9 kmh 29.72 in1006.4 mb 0.00 in0.0 mm 0.00 in0.0 mm 0.00 in0.0 mm
04:54 PM 64.8°F18.2°C 49.7°F9.8°C 58% 7.9 mph SSE12.7 kmh SSE 13.0 mph20.9 kmh 29.73 in1006.8 mb 0.00 in0.0 mm 0.00 in0.0 mm 0.00 in0.0 mm
04:48 PM 64.8°F18.2°C 49.7°F9.8°C 58% 7.3 mph S11.7 kmh S 9.0 mph14.5 kmh 29.73 in1006.8 mb 0.00 in0.0 mm 0.00 in0.0 mm 0.00 in0.0 mm
04:42 PM 64.9°F18.3°C 49.8°F9.9°C 58% 7.3 mph SSW11.7 kmh SSW 10.0 mph16.1 kmh 29.73 in1006.8 mb 0.00 in0.0 mm 0.00 in0.0 mm 0.00 in0.0 mm
04:36 PM 64.9°F18.3°C 49.8°F9.9°C 58% 8.8 mph SW14.2 kmh SW 13.0 mph20.9 kmh 29.73 in1006.8 mb 0.00 in0.0 mm 0.00 in0.0 mm 0.00 in0.0 mm
04:30 PM 64.9°F18.3°C 49.8°F9.9°C 58% 8.6 mph SE13.8 kmh SE 11.0 mph17.7 kmh 29.73 in1006.8 mb 0.00 in0.0 mm 0.00 in0.0 mm 0.00 in0.0 mm
04:24 PM 64.9°F18.3°C 49.8°F9.9°C 58% 7.3 mph S11.7 kmh S 9.0 mph14.5 kmh 29.73 in1006.8 mb 0.00 in0.0 mm 0.00 in0.0 mm 0.00 in0.0 mm
04:18 PM 64.9°F18.3°C 49.7°F9.8°C 58% 9.9 mph SSW15.9 kmh SSW 15.0 mph24.1 kmh 29.73 in1006.8 mb 0.00 in0.0 mm 0.00 in0.0 mm 0.00 in0.0 mm
04:12 PM 65.0°F18.3°C 49.9°F9.9°C 58% 8.5 mph SSE13.7 kmh SSE 10.0 mph16.1 kmh 29.73 in1006.8 mb 0.00 in0.0 mm 0.00 in0.0 mm 0.00 in0.0 mm
04:06 PM 65.1°F18.4°C 49.9°F9.9°C 58% 13.6 mph S21.9 kmh S 19.0 mph30.6 kmh 29.73 in1006.8 mb 0.00 in0.0 mm 0.00 in0.0 mm 0.00 in0.0 mm
04:00 PM 65.5°F18.6°C 50.3°F10.2°C 58% 8.8 mph S14.2 kmh S 11.0 mph17.7 kmh 29.73 in1006.8 mb 0.00 in0.0 mm 0.00 in0.0 mm 0.00 in0.0 mm
03:54 PM 65.2°F18.4°C 50.0°F10.0°C 58% 8.7 mph S14.0 kmh S 12.0 mph19.3 kmh 29.73 in1006.8 mb 0.00 in0.0 mm 0.00 in0.0 mm 0.00 in0.0 mm
03:48 PM 65.0°F18.3°C 49.9°F9.9°C 58% 13.4 mph S21.6 kmh S 19.0 mph30.6 kmh 29.73 in1006.8 mb 0.00 in0.0 mm 0.00 in0.0 mm 0.00 in0.0 mm
03:42 PM 65.1°F18.4°C 49.9°F9.9°C 58% 9.7 mph S15.6 kmh S 13.0 mph20.9 kmh 29.73 in1006.8 mb 0.00 in0.0 mm 0.00 in0.0 mm 0.00 in0.0 mm
03:36 PM 65.2°F18.4°C 50.0°F10.0°C 58% 12.4 mph S20.0 kmh S 17.0 mph27.4 kmh 29.73 in1006.8 mb 0.00 in0.0 mm 0.00 in0.0 mm 0.00 in0.0 mm
03:30 PM 65.5°F18.6°C 50.3°F10.2°C 58% 11.8 mph S19.0 kmh S 16.0 mph25.7 kmh 29.73 in1006.8 mb 0.00 in0.0 mm 0.00 in0.0 mm 0.00 in0.0 mm
03:24 PM 65.4°F18.6°C 50.3°F10.2°C 58% 11.1 mph S17.9 kmh S 17.0 mph27.4 kmh 29.73 in1006.8 mb 0.00 in0.0 mm 0.00 in0.0 mm 0.00 in0.0 mm
03:18 PM 65.6°F18.7°C 50.4°F10.2°C 58% 11.2 mph SE18.0 kmh SE 19.0 mph30.6 kmh 29.73 in1006.8 mb 0.00 in0.0 mm 0.00 in0.0 mm 0.00 in0.0 mm
03:12 PM 65.5°F18.6°C 50.3°F10.2°C 58% 11.7 mph SW18.8 kmh SW 19.0 mph30.6 kmh 29.73 in1006.8 mb 0.00 in0.0 mm 0.00 in0.0 mm 0.00 in0.0 mm
03:06 PM 65.4°F18.6°C 50.7°F10.4°C 59% 9.2 mph SW14.8 kmh SW 13.0 mph20.9 kmh 29.73 in1006.8 mb 0.00 in0.0 mm 0.00 in0.0 mm 0.00 in0.0 mm
03:00 PM 65.2°F18.4°C 50.5°F10.3°C 59% 11.6 mph SSW18.7 kmh SSW 15.0 mph24.1 kmh 29.74 in1007.1 mb 0.00 in0.0 mm 0.00 in0.0 mm 0.00 in0.0 mm
02:54 PM 64.9°F18.3°C 50.3°F10.2°C 59% 8.8 mph S14.2 kmh S 11.0 mph17.7 kmh 29.74 in1007.1 mb 0.00 in0.0 mm 0.00 in0.0 mm 0.00 in0.0 mm
02:48 PM 64.5°F18.1°C 49.8°F9.9°C 59% 8.8 mph S14.2 kmh S 10.0 mph16.1 kmh 29.75 in1007.5 mb 0.00 in0.0 mm 0.00 in0.0 mm 0.00 in0.0 mm
02:42 PM 64.6°F18.1°C 49.9°F9.9°C 59% 9.9 mph S15.9 kmh S 14.0 mph22.5 kmh 29.75 in1007.5 mb 0.00 in0.0 mm 0.00 in0.0 mm 0.00 in0.0 mm
02:36 PM 64.9°F18.3°C 50.2°F10.1°C 59% 10.7 mph S17.2 kmh S 15.0 mph24.1 kmh 29.75 in1007.5 mb 0.00 in0.0 mm 0.00 in0.0 mm 0.00 in0.0 mm
02:30 PM 65.3°F18.5°C 50.6°F10.3°C 59% 7.0 mph S11.3 kmh S 9.0 mph14.5 kmh 29.77 in1008.1 mb 0.00 in0.0 mm 0.00 in0.0 mm 0.00 in0.0 mm
02:24 PM 64.6°F18.1°C 50.4°F10.2°C 60% 9.2 mph SSW14.8 kmh SSW 12.0 mph19.3 kmh 29.77 in1008.1 mb 0.00 in0.0 mm 0.00 in0.0 mm 0.00 in0.0 mm
02:18 PM 64.9°F18.3°C 51.0°F10.6°C 61% 8.7 mph S14.0 kmh S 15.0 mph24.1 kmh 29.77 in1008.1 mb 0.00 in0.0 mm 0.00 in0.0 mm 0.00 in0.0 mm
02:12 PM 63.9°F17.7°C 50.2°F10.1°C 61% 10.2 mph SSW16.4 kmh SSW 14.0 mph22.5 kmh 29.77 in1008.1 mb 0.00 in0.0 mm 0.00 in0.0 mm 0.00 in0.0 mm
02:06 PM 63.9°F17.7°C 50.8°F10.4°C 62% 8.4 mph SSE13.5 kmh SSE 12.0 mph19.3 kmh 29.77 in1008.1 mb 0.00 in0.0 mm 0.00 in0.0 mm 0.00 in0.0 mm
02:00 PM 62.3°F16.8°C 49.6°F9.8°C 63% 7.5 mph S12.1 kmh S 9.0 mph14.5 kmh 29.78 in1008.5 mb 0.00 in0.0 mm 0.00 in0.0 mm 0.00 in0.0 mm
01:54 PM 62.4°F16.9°C 49.6°F9.8°C 63% 8.7 mph S14.0 kmh S 12.0 mph19.3 kmh 29.79 in1008.8 mb 0.00 in0.0 mm 0.00 in0.0 mm 0.00 in0.0 mm
01:48 PM 62.3°F16.8°C 49.6°F9.8°C 63% 8.3 mph SSE13.4 kmh SSE 10.0 mph16.1 kmh 29.79 in1008.8 mb 0.00 in0.0 mm 0.00 in0.0 mm 0.00 in0.0 mm
01:42 PM 61.7°F16.5°C 49.0°F9.4°C 63% 9.2 mph SE14.8 kmh SE 10.0 mph16.1 kmh 29.79 in1008.8 mb 0.00 in0.0 mm 0.00 in0.0 mm 0.00 in0.0 mm
01:36 PM 61.4°F16.3°C 48.7°F9.3°C 63% 7.7 mph S12.4 kmh S 10.0 mph16.1 kmh 29.78 in1008.5 mb 0.00 in0.0 mm 0.00 in0.0 mm 0.00 in0.0 mm
01:30 PM 60.6°F15.9°C 47.9°F8.8°C 63% 7.3 mph S11.7 kmh S 9.0 mph14.5 kmh 29.79 in1008.8 mb 0.00 in0.0 mm 0.00 in0.0 mm 0.00 in0.0 mm
01:24 PM 62.0°F16.7°C 50.1°F10.1°C 65% 11.6 mph S18.7 kmh S 17.0 mph27.4 kmh 29.79 in1008.8 mb 0.00 in0.0 mm 0.00 in0.0 mm 0.00 in0.0 mm
01:18 PM 61.1°F16.2°C 49.2°F9.6°C 65% 11.3 mph S18.2 kmh S 13.0 mph20.9 kmh 29.79 in1008.8 mb 0.00 in0.0 mm 0.00 in0.0 mm 0.00 in0.0 mm
01:12 PM 60.4°F15.8°C 48.5°F9.2°C 65% 10.4 mph S16.7 kmh S 13.0 mph20.9 kmh 29.80 in1009.1 mb 0.00 in0.0 mm 0.00 in0.0 mm 0.00 in0.0 mm
01:06 PM 60.2°F15.7°C 48.4°F9.1°C 65% 8.6 mph S13.8 kmh S 11.0 mph17.7 kmh 29.81 in1009.5 mb 0.00 in0.0 mm 0.00 in0.0 mm 0.00 in0.0 mm
01:00 PM 59.7°F15.4°C 47.9°F8.8°C 65% 10.7 mph S17.2 kmh S 15.0 mph24.1 kmh 29.81 in1009.5 mb 0.00 in0.0 mm 0.00 in0.0 mm 0.00 in0.0 mm
12:54 PM 60.2°F15.7°C 48.8°F9.3°C 66% 7.4 mph SSE11.9 kmh SSE 12.0 mph19.3 kmh 29.81 in1009.5 mb 0.00 in0.0 mm 0.00 in0.0 mm 0.00 in0.0 mm
12:48 PM 59.7°F15.4°C 48.3°F9.1°C 66% 7.3 mph SSE11.7 kmh SSE 12.0 mph19.3 kmh 29.82 in1009.8 mb 0.00 in0.0 mm 0.00 in0.0 mm 0.00 in0.0 mm
12:42 PM 59.9°F15.5°C 49.3°F9.6°C 68% 10.7 mph S17.2 kmh S 15.0 mph24.1 kmh 29.82 in1009.8 mb 0.00 in0.0 mm 0.00 in0.0 mm 0.00 in0.0 mm
12:36 PM 59.5°F15.3°C 49.0°F9.4°C 68% 6.8 mph S10.9 kmh S 7.0 mph11.3 kmh 29.82 in1009.8 mb 0.00 in0.0 mm 0.00 in0.0 mm 0.00 in0.0 mm
12:30 PM 59.1°F15.1°C 48.9°F9.4°C 69% 6.3 mph SSE10.1 kmh SSE 9.0 mph14.5 kmh 29.82 in1009.8 mb 0.00 in0.0 mm 0.00 in0.0 mm 0.00 in0.0 mm
12:24 PM 59.4°F15.2°C 49.4°F9.7°C 69% 8.0 mph SE12.9 kmh SE 14.0 mph22.5 kmh 29.82 in1009.8 mb 0.00 in0.0 mm 0.00 in0.0 mm 0.00 in0.0 mm
12:18 PM 59.0°F15.0°C 49.2°F9.6°C 70% 8.2 mph SSE13.2 kmh SSE 12.0 mph19.3 kmh 29.82 in1009.8 mb 0.00 in0.0 mm 0.00 in0.0 mm 0.00 in0.0 mm
12:12 PM 58.5°F14.7°C 49.0°F9.4°C 71% 6.7 mph SSE10.8 kmh SSE 10.0 mph16.1 kmh 29.82 in1009.8 mb 0.00 in0.0 mm 0.00 in0.0 mm 0.00 in0.0 mm
12:06 PM 57.8°F14.3°C 49.0°F9.4°C 72% 6.3 mph S10.1 kmh S 11.0 mph17.7 kmh 29.82 in1009.8 mb 0.00 in0.0 mm 0.00 in0.0 mm 0.00 in0.0 mm
12:00 PM 56.4°F13.6°C 47.9°F8.8°C 73% 8.2 mph S13.2 kmh S 13.0 mph20.9 kmh 29.82 in1009.8 mb 0.00 in0.0 mm 0.00 in0.0 mm 0.00 in0.0 mm
11:54 AM 56.3°F13.5°C 48.1°F8.9°C 74% 5.6 mph SSW9.0 kmh SSW 8.0 mph12.9 kmh 29.83 in1010.2 mb 0.00 in0.0 mm 0.00 in0.0 mm 0.00 in0.0 mm
11:48 AM 55.8°F13.2°C 47.7°F8.7°C 74% 6.3 mph S10.1 kmh S 7.0 mph11.3 kmh 29.84 in1010.5 mb 0.00 in0.0 mm 0.00 in0.0 mm 0.00 in0.0 mm
11:42 AM 55.1°F12.8°C 47.0°F8.3°C 74% 6.0 mph SSW9.7 kmh SSW 8.0 mph12.9 kmh 29.84 in1010.5 mb 0.00 in0.0 mm 0.00 in0.0 mm 0.00 in0.0 mm
11:36 AM 55.1°F12.8°C 47.2°F8.4°C 75% 4.7 mph SW7.6 kmh SW 7.0 mph11.3 kmh 29.85 in1010.8 mb 0.00 in0.0 mm 0.00 in0.0 mm 0.00 in0.0 mm
11:30 AM 54.9°F12.7°C 47.1°F8.4°C 75% 7.2 mph SSE11.6 kmh SSE 9.0 mph14.5 kmh 29.85 in1010.8 mb 0.00 in0.0 mm 0.00 in0.0 mm 0.00 in0.0 mm
11:24 AM 54.5°F12.5°C 46.7°F8.2°C 75% 7.9 mph S12.7 kmh S 14.0 mph22.5 kmh 29.86 in1011.2 mb 0.00 in0.0 mm 0.00 in0.0 mm 0.00 in0.0 mm
11:18 AM 54.0°F12.2°C 46.3°F7.9°C 75% 6.7 mph S10.8 kmh S 12.0 mph19.3 kmh 29.86 in1011.2 mb 0.00 in0.0 mm 0.00 in0.0 mm 0.00 in0.0 mm
11:12 AM 53.5°F11.9°C 45.7°F7.6°C 75% 8.1 mph S13.0 kmh S 12.0 mph19.3 kmh 29.87 in1011.5 mb 0.00 in0.0 mm 0.00 in0.0 mm 0.00 in0.0 mm
11:06 AM 53.2°F11.8°C 45.7°F7.6°C 76% 7.0 mph SSE11.3 kmh SSE 10.0 mph16.1 kmh 29.87 in1011.5 mb 0.00 in0.0 mm 0.00 in0.0 mm 0.00 in0.0 mm
11:00 AM 52.7°F11.5°C 45.3°F7.4°C 76% 8.1 mph SSW13.0 kmh SSW 11.0 mph17.7 kmh 29.87 in1011.5 mb 0.00 in0.0 mm 0.00 in0.0 mm 0.00 in0.0 mm
10:54 AM 52.2°F11.2°C 45.1°F7.3°C 77% 9.7 mph S15.6 kmh S 13.0 mph20.9 kmh 29.87 in1011.5 mb 0.00 in0.0 mm 0.00 in0.0 mm 0.00 in0.0 mm
10:48 AM 52.2°F11.2°C 45.6°F7.6°C 78% 10.1 mph S16.3 kmh S 14.0 mph22.5 kmh 29.87 in1011.5 mb 0.00 in0.0 mm 0.00 in0.0 mm 0.00 in0.0 mm
10:42 AM 51.4°F10.8°C 45.1°F7.3°C 79% 6.3 mph S10.1 kmh S 8.0 mph12.9 kmh 29.88 in1011.9 mb 0.00 in0.0 mm 0.00 in0.0 mm 0.00 in0.0 mm
10:36 AM 50.8°F10.4°C 44.5°F6.9°C 79% 9.5 mph S15.3 kmh S 14.0 mph22.5 kmh 29.88 in1011.9 mb 0.00 in0.0 mm 0.00 in0.0 mm 0.00 in0.0 mm
10:30 AM 50.5°F10.3°C 44.6°F7.0°C 80% 7.6 mph S12.2 kmh S 14.0 mph22.5 kmh 29.88 in1011.9 mb 0.00 in0.0 mm 0.00 in0.0 mm 0.00 in0.0 mm
10:24 AM 50.0°F10.0°C 44.1°F6.7°C 80% 7.7 mph S12.4 kmh S 13.0 mph20.9 kmh 29.89 in1012.2 mb 0.00 in0.0 mm 0.00 in0.0 mm 0.00 in0.0 mm
10:18 AM 49.4°F9.7°C 43.8°F6.6°C 81% 8.7 mph S14.0 kmh S 13.0 mph20.9 kmh 29.88 in1011.9 mb 0.00 in0.0 mm 0.00 in0.0 mm 0.00 in0.0 mm
10:12 AM 49.3°F9.6°C 43.7°F6.5°C 81% 8.4 mph ESE13.5 kmh ESE 12.0 mph19.3 kmh 29.89 in1012.2 mb 0.00 in0.0 mm 0.00 in0.0 mm 0.00 in0.0 mm
10:06 AM 49.2°F9.6°C 43.6°F6.4°C 81% 7.4 mph S11.9 kmh S 11.0 mph17.7 kmh 29.88 in1011.9 mb 0.00 in0.0 mm 0.00 in0.0 mm 0.00 in0.0 mm
10:00 AM 48.7°F9.3°C 43.1°F6.2°C 81% 6.0 mph S9.7 kmh S 8.0 mph12.9 kmh 29.88 in1011.9 mb 0.00 in0.0 mm 0.00 in0.0 mm 0.00 in0.0 mm
09:54 AM 48.4°F9.1°C 43.5°F6.4°C 83% 6.6 mph S10.6 kmh S 9.0 mph14.5 kmh 29.88 in1011.9 mb 0.00 in0.0 mm 0.00 in0.0 mm 0.00 in0.0 mm
09:48 AM 47.6°F8.7°C 42.7°F5.9°C 83% 7.2 mph SE11.6 kmh SE 11.0 mph17.7 kmh 29.88 in1011.9 mb 0.00 in0.0 mm 0.00 in0.0 mm 0.00 in0.0 mm
09:42 AM 47.5°F8.6°C 42.6°F5.9°C 83% 7.2 mph S11.6 kmh S 10.0 mph16.1 kmh 29.89 in1012.2 mb 0.00 in0.0 mm 0.00 in0.0 mm 0.00 in0.0 mm
09:36 AM 47.0°F8.3°C 42.7°F5.9°C 85% 7.2 mph ESE11.6 kmh ESE 9.0 mph14.5 kmh 29.88 in1011.9 mb 0.00 in0.0 mm 0.00 in0.0 mm 0.00 in0.0 mm
09:30 AM 46.5°F8.1°C 42.2°F5.7°C 85% 6.8 mph S10.9 kmh S 9.0 mph14.5 kmh 29.89 in1012.2 mb 0.00 in0.0 mm 0.00 in0.0 mm 0.00 in0.0 mm
09:24 AM 46.1°F7.8°C 42.1°F5.6°C 86% 8.0 mph SE12.9 kmh SE 12.0 mph19.3 kmh 29.89 in1012.2 mb 0.00 in0.0 mm 0.00 in0.0 mm 0.00 in0.0 mm
09:18 AM 45.9°F7.7°C 42.0°F5.6°C 86% 4.8 mph SE7.7 kmh SE 7.0 mph11.3 kmh 29.89 in1012.2 mb 0.00 in0.0 mm 0.00 in0.0 mm 0.00 in0.0 mm
09:12 AM 45.8°F7.7°C 41.8°F5.4°C 86% 4.3 mph SSE6.9 kmh SSE 6.0 mph9.7 kmh 29.89 in1012.2 mb 0.00 in0.0 mm 0.00 in0.0 mm 0.00 in0.0 mm
09:06 AM 45.4°F7.4°C 41.5°F5.3°C 86% 4.7 mph SSE7.6 kmh SSE 6.0 mph9.7 kmh 29.89 in1012.2 mb 0.00 in0.0 mm 0.00 in0.0 mm 0.00 in0.0 mm
09:00 AM 45.0°F7.2°C 41.7°F5.4°C 88% 5.1 mph E8.2 kmh E 8.0 mph12.9 kmh 29.89 in1012.2 mb 0.00 in0.0 mm 0.00 in0.0 mm 0.00 in0.0 mm
08:54 AM 45.0°F7.2°C 41.7°F5.4°C 88% 4.7 mph SSE7.6 kmh SSE 6.0 mph9.7 kmh 29.89 in1012.2 mb 0.00 in0.0 mm 0.00 in0.0 mm 0.00 in0.0 mm
08:48 AM 44.6°F7.0°C 41.3°F5.2°C 88% 5.1 mph SSW8.2 kmh SSW 8.0 mph12.9 kmh 29.90 in1012.5 mb 0.00 in0.0 mm 0.00 in0.0 mm 0.00 in0.0 mm
08:42 AM 44.2°F6.8°C 40.9°F4.9°C 88% 4.3 mph SSW6.9 kmh SSW 7.0 mph11.3 kmh 29.90 in1012.5 mb 0.00 in0.0 mm 0.00 in0.0 mm 0.00 in0.0 mm
08:36 AM 44.0°F6.7°C 40.8°F4.9°C 88% 7.0 mph E11.3 kmh E 10.0 mph16.1 kmh 29.90 in1012.5 mb 0.00 in0.0 mm 0.00 in0.0 mm 0.00 in0.0 mm
08:30 AM 43.7°F6.5°C 41.0°F5.0°C 90% 6.0 mph S9.7 kmh S 9.0 mph14.5 kmh 29.90 in1012.5 mb 0.00 in0.0 mm 0.00 in0.0 mm 0.00 in0.0 mm
08:24 AM 43.5°F6.4°C 40.7°F4.8°C 90% 6.3 mph S10.1 kmh S 10.0 mph16.1 kmh 29.90 in1012.5 mb 0.00 in0.0 mm 0.00 in0.0 mm 0.00 in0.0 mm
08:18 AM 43.2°F6.2°C 40.8°F4.9°C 91% 5.0 mph S8.0 kmh S 8.0 mph12.9 kmh 29.91 in1012.9 mb 0.00 in0.0 mm 0.00 in0.0 mm 0.00 in0.0 mm
08:12 AM 43.2°F6.2°C 40.8°F4.9°C 91% 4.0 mph SE6.4 kmh SE 5.0 mph8.0 kmh 29.90 in1012.5 mb 0.00 in0.0 mm 0.00 in0.0 mm 0.00 in0.0 mm
08:06 AM 43.0°F6.1°C 40.6°F4.8°C 91% 4.6 mph S7.4 kmh S 7.0 mph11.3 kmh 29.90 in1012.5 mb 0.00 in0.0 mm 0.00 in0.0 mm 0.00 in0.0 mm
08:00 AM 42.7°F5.9°C 40.3°F4.6°C 91% 4.3 mph S6.9 kmh S 8.0 mph12.9 kmh 29.90 in1012.5 mb 0.00 in0.0 mm 0.00 in0.0 mm 0.00 in0.0 mm
07:54 AM 42.5°F5.8°C 40.1°F4.5°C 91% 4.0 mph S6.4 kmh S 5.0 mph8.0 kmh 29.90 in1012.5 mb 0.00 in0.0 mm 0.00 in0.0 mm 0.00 in0.0 mm
07:48 AM 42.4°F5.8°C 39.9°F4.4°C 91% 4.7 mph SSE7.6 kmh SSE 6.0 mph9.7 kmh 29.90 in1012.5 mb 0.00 in0.0 mm 0.00 in0.0 mm 0.00 in0.0 mm
07:42 AM 42.3°F5.7°C 40.4°F4.7°C 93% 4.6 mph S7.4 kmh S 7.0 mph11.3 kmh 29.91 in1012.9 mb 0.00 in0.0 mm 0.00 in0.0 mm 0.00 in0.0 mm
07:36 AM 42.3°F5.7°C 40.4°F4.7°C 93% 4.5 mph SE7.2 kmh SE 6.0 mph9.7 kmh 29.91 in1012.9 mb 0.00 in0.0 mm 0.00 in0.0 mm 0.00 in0.0 mm
07:30 AM 42.1°F5.6°C 40.2°F4.6°C 93% 3.7 mph SE6.0 kmh SE 9.0 mph14.5 kmh 29.91 in1012.9 mb 0.00 in0.0 mm 0.00 in0.0 mm 0.00 in0.0 mm
07:24 AM 42.1°F5.6°C 40.2°F4.6°C 93% 4.5 mph SSE7.2 kmh SSE 5.0 mph8.0 kmh 29.92 in1013.2 mb 0.00 in0.0 mm 0.00 in0.0 mm 0.00 in0.0 mm
07:18 AM 41.9°F5.5°C 40.0°F4.4°C 93% 3.3 mph S5.3 kmh S 5.0 mph8.0 kmh 29.92 in1013.2 mb 0.00 in0.0 mm 0.00 in0.0 mm 0.00 in0.0 mm
07:12 AM 41.9°F5.5°C 40.0°F4.4°C 93% 3.7 mph S6.0 kmh S 5.0 mph8.0 kmh 29.92 in1013.2 mb 0.00 in0.0 mm 0.00 in0.0 mm 0.00 in0.0 mm
07:06 AM 41.5°F5.3°C 39.6°F4.2°C 93% 3.7 mph S6.0 kmh S 7.0 mph11.3 kmh 29.92 in1013.2 mb 0.00 in0.0 mm 0.00 in0.0 mm 0.00 in0.0 mm
07:00 AM 41.5°F5.3°C 39.6°F4.2°C 93% 3.6 mph S5.8 kmh S 5.0 mph8.0 kmh 29.92 in1013.2 mb 0.00 in0.0 mm 0.00 in0.0 mm 0.00 in0.0 mm
06:54 AM 41.1°F5.1°C 39.2°F4.0°C 93% 3.0 mph SSE4.8 kmh SSE 4.0 mph6.4 kmh 29.92 in1013.2 mb 0.00 in0.0 mm 0.00 in0.0 mm 0.00 in0.0 mm
06:48 AM 41.1°F5.1°C 39.2°F4.0°C 93% 3.1 mph SE5.0 kmh SE 5.0 mph8.0 kmh 29.92 in1013.2 mb 0.00 in0.0 mm 0.00 in0.0 mm 0.00 in0.0 mm
06:42 AM 41.1°F5.1°C 39.2°F4.0°C 93% 4.2 mph S6.8 kmh S 6.0 mph9.7 kmh 29.92 in1013.2 mb 0.00 in0.0 mm 0.00 in0.0 mm 0.00 in0.0 mm
06:36 AM 41.1°F5.1°C 39.2°F4.0°C 93% 4.1 mph SSW6.6 kmh SSW 6.0 mph9.7 kmh 29.92 in1013.2 mb 0.00 in0.0 mm 0.00 in0.0 mm 0.00 in0.0 mm
06:30 AM 41.1°F5.1°C 39.2°F4.0°C 93% 4.3 mph S6.9 kmh S 5.0 mph8.0 kmh 29.93 in1013.5 mb 0.00 in0.0 mm 0.00 in0.0 mm 0.00 in0.0 mm
06:24 AM 40.9°F4.9°C 39.0°F3.9°C 93% 3.3 mph SE5.3 kmh SE 6.0 mph9.7 kmh 29.93 in1013.5 mb 0.00 in0.0 mm 0.00 in0.0 mm 0.00 in0.0 mm
06:18 AM 40.9°F4.9°C 39.0°F3.9°C 93% 4.0 mph NE6.4 kmh NE 8.0 mph12.9 kmh 29.93 in1013.5 mb 0.00 in0.0 mm 0.00 in0.0 mm 0.00 in0.0 mm
06:12 AM 40.9°F4.9°C 39.0°F3.9°C 93% 2.7 mph S4.3 kmh S 4.0 mph6.4 kmh 29.93 in1013.5 mb 0.00 in0.0 mm 0.00 in0.0 mm 0.00 in0.0 mm
06:06 AM 40.9°F4.9°C 38.7°F3.7°C 92% 2.5 mph SSE4.0 kmh SSE 4.0 mph6.4 kmh 29.94 in1013.9 mb 0.00 in0.0 mm 0.00 in0.0 mm 0.00 in0.0 mm
06:00 AM 40.9°F4.9°C 38.5°F3.6°C 91% 2.5 mph E4.0 kmh E 4.0 mph6.4 kmh 29.93 in1013.5 mb 0.00 in0.0 mm 0.00 in0.0 mm 0.00 in0.0 mm
05:54 AM 40.9°F4.9°C 38.5°F3.6°C 91% 3.0 mph ESE4.8 kmh ESE 4.0 mph6.4 kmh 29.93 in1013.5 mb 0.00 in0.0 mm 0.00 in0.0 mm 0.00 in0.0 mm
05:48 AM 40.9°F4.9°C 38.5°F3.6°C 91% 2.2 mph S3.5 kmh S 3.0 mph4.8 kmh 29.94 in1013.9 mb 0.00 in0.0 mm 0.00 in0.0 mm 0.00 in0.0 mm
05:42 AM 41.1°F5.1°C 38.7°F3.7°C 91% 3.7 mph S6.0 kmh S 5.0 mph8.0 kmh 29.94 in1013.9 mb 0.00 in0.0 mm 0.00 in0.0 mm 0.00 in0.0 mm
05:36 AM 41.1°F5.1°C 38.7°F3.7°C 91% 3.0 mph SE4.8 kmh SE 4.0 mph6.4 kmh 29.94 in1013.9 mb 0.00 in0.0 mm 0.00 in0.0 mm 0.00 in0.0 mm
05:30 AM 41.1°F5.1°C 38.7°F3.7°C 91% 2.6 mph S4.2 kmh S 4.0 mph6.4 kmh 29.95 in1014.2 mb 0.00 in0.0 mm 0.00 in0.0 mm 0.00 in0.0 mm
05:24 AM 41.1°F5.1°C 38.7°F3.7°C 91% 3.3 mph S5.3 kmh S 4.0 mph6.4 kmh 29.95 in1014.2 mb 0.00 in0.0 mm 0.00 in0.0 mm 0.00 in0.0 mm
05:18 AM 41.1°F5.1°C 38.7°F3.7°C 91% 2.3 mph SSE3.7 kmh SSE 4.0 mph6.4 kmh 29.94 in1013.9 mb 0.00 in0.0 mm 0.00 in0.0 mm 0.00 in0.0 mm
05:12 AM 41.1°F5.1°C 38.7°F3.7°C 91% 3.0 mph S4.8 kmh S 4.0 mph6.4 kmh 29.94 in1013.9 mb 0.00 in0.0 mm 0.00 in0.0 mm 0.00 in0.0 mm
05:06 AM 41.1°F5.1°C 38.7°F3.7°C 91% 2.3 mph SE3.7 kmh SE 4.0 mph6.4 kmh 29.94 in1013.9 mb 0.00 in0.0 mm 0.00 in0.0 mm 0.00 in0.0 mm
05:00 AM 41.1°F5.1°C 38.7°F3.7°C 91% 2.7 mph SSW4.3 kmh SSW 4.0 mph6.4 kmh 29.95 in1014.2 mb 0.00 in0.0 mm 0.00 in0.0 mm 0.00 in0.0 mm
04:54 AM 41.1°F5.1°C 38.7°F3.7°C 91% 2.5 mph E4.0 kmh E 4.0 mph6.4 kmh 29.95 in1014.2 mb 0.00 in0.0 mm 0.00 in0.0 mm 0.00 in0.0 mm
04:48 AM 41.4°F5.2°C 39.0°F3.9°C 91% 2.6 mph S4.2 kmh S 4.0 mph6.4 kmh 29.94 in1013.9 mb 0.00 in0.0 mm 0.00 in0.0 mm 0.00 in0.0 mm
04:42 AM 41.4°F5.2°C 38.7°F3.7°C 90% 3.0 mph S4.8 kmh S 4.0 mph6.4 kmh 29.94 in1013.9 mb 0.00 in0.0 mm 0.00 in0.0 mm 0.00 in0.0 mm
04:36 AM 41.5°F5.3°C 38.8°F3.8°C 90% 2.7 mph SW4.3 kmh SW 4.0 mph6.4 kmh 29.95 in1014.2 mb 0.00 in0.0 mm 0.00 in0.0 mm 0.00 in0.0 mm
04:30 AM 41.5°F5.3°C 38.8°F3.8°C 90% 2.3 mph SE3.7 kmh SE 4.0 mph6.4 kmh 29.95 in1014.2 mb 0.00 in0.0 mm 0.00 in0.0 mm 0.00 in0.0 mm
04:24 AM 41.7°F5.4°C 38.9°F3.8°C 90% 3.1 mph WSW5.0 kmh WSW 5.0 mph8.0 kmh 29.94 in1013.9 mb 0.00 in0.0 mm 0.00 in0.0 mm 0.00 in0.0 mm
04:18 AM 41.8°F5.4°C 39.1°F3.9°C 90% 2.2 mph N3.5 kmh N 4.0 mph6.4 kmh 29.95 in1014.2 mb 0.00 in0.0 mm 0.00 in0.0 mm 0.00 in0.0 mm
04:12 AM 41.9°F5.5°C 39.2°F4.0°C 90% 2.7 mph S4.3 kmh S 6.0 mph9.7 kmh 29.95 in1014.2 mb 0.00 in0.0 mm 0.00 in0.0 mm 0.00 in0.0 mm
04:06 AM 41.7°F5.4°C 39.0°F3.9°C 90% 4.4 mph S7.1 kmh S 6.0 mph9.7 kmh 29.95 in1014.2 mb 0.00 in0.0 mm 0.00 in0.0 mm 0.00 in0.0 mm
04:00 AM 41.5°F5.3°C 38.8°F3.8°C 90% 3.9 mph SSW6.3 kmh SSW 4.0 mph6.4 kmh 29.95 in1014.2 mb 0.00 in0.0 mm 0.00 in0.0 mm 0.00 in0.0 mm
03:54 AM 41.5°F5.3°C 38.8°F3.8°C 90% 2.6 mph SSE4.2 kmh SSE 4.0 mph6.4 kmh 29.96 in1014.6 mb 0.00 in0.0 mm 0.00 in0.0 mm 0.00 in0.0 mm
03:48 AM 41.5°F5.3°C 38.8°F3.8°C 90% 3.2 mph S5.1 kmh S 4.0 mph6.4 kmh 29.96 in1014.6 mb 0.00 in0.0 mm 0.00 in0.0 mm 0.00 in0.0 mm
03:42 AM 41.5°F5.3°C 38.8°F3.8°C 90% 3.4 mph S5.5 kmh S 4.0 mph6.4 kmh 29.96 in1014.6 mb 0.00 in0.0 mm 0.00 in0.0 mm 0.00 in0.0 mm
03:36 AM 41.5°F5.3°C 38.8°F3.8°C 90% 3.8 mph SW6.1 kmh SW 4.0 mph6.4 kmh 29.96 in1014.6 mb 0.00 in0.0 mm 0.00 in0.0 mm 0.00 in0.0 mm
03:30 AM 41.7°F5.4°C 39.0°F3.9°C 90% 3.2 mph S5.1 kmh S 4.0 mph6.4 kmh 29.96 in1014.6 mb 0.00 in0.0 mm 0.00 in0.0 mm 0.00 in0.0 mm
03:24 AM 41.7°F5.4°C 39.0°F3.9°C 90% 3.2 mph ESE5.1 kmh ESE 5.0 mph8.0 kmh 29.96 in1014.6 mb 0.00 in0.0 mm 0.00 in0.0 mm 0.00 in0.0 mm
03:18 AM 41.7°F5.4°C 39.0°F3.9°C 90% 1.7 mph S2.7 kmh S 2.0 mph3.2 kmh 29.97 in1014.9 mb 0.00 in0.0 mm 0.00 in0.0 mm 0.00 in0.0 mm
03:12 AM 41.9°F5.5°C 39.2°F4.0°C 90% 4.0 mph S6.4 kmh S 4.0 mph6.4 kmh 29.97 in1014.9 mb 0.00 in0.0 mm 0.00 in0.0 mm 0.00 in0.0 mm
03:06 AM 41.7°F5.4°C 39.0°F3.9°C 90% 4.0 mph SE6.4 kmh SE 6.0 mph9.7 kmh 29.97 in1014.9 mb 0.00 in0.0 mm 0.00 in0.0 mm 0.00 in0.0 mm
03:00 AM 41.7°F5.4°C 39.0°F3.9°C 90% 2.8 mph S4.5 kmh S 4.0 mph6.4 kmh 29.97 in1014.9 mb 0.00 in0.0 mm 0.00 in0.0 mm 0.00 in0.0 mm
02:54 AM 41.5°F5.3°C 38.8°F3.8°C 90% 2.3 mph SE3.7 kmh SE 3.0 mph4.8 kmh 29.98 in1015.2 mb 0.00 in0.0 mm 0.00 in0.0 mm 0.00 in0.0 mm
02:48 AM 41.4°F5.2°C 38.7°F3.7°C 90% 2.5 mph SSE4.0 kmh SSE 4.0 mph6.4 kmh 29.98 in1015.2 mb 0.00 in0.0 mm 0.00 in0.0 mm 0.00 in0.0 mm
02:42 AM 41.1°F5.1°C 38.4°F3.6°C 90% 2.4 mph S3.9 kmh S 4.0 mph6.4 kmh 29.99 in1015.6 mb 0.00 in0.0 mm 0.00 in0.0 mm 0.00 in0.0 mm
02:36 AM 41.1°F5.1°C 38.4°F3.6°C 90% 1.7 mph SE2.7 kmh SE 2.0 mph3.2 kmh 29.99 in1015.6 mb 0.00 in0.0 mm 0.00 in0.0 mm 0.00 in0.0 mm
02:30 AM 41.1°F5.1°C 38.4°F3.6°C 90% 1.2 mph S1.9 kmh S 2.0 mph3.2 kmh 29.98 in1015.2 mb 0.00 in0.0 mm 0.00 in0.0 mm 0.00 in0.0 mm
02:24 AM 41.1°F5.1°C 38.4°F3.6°C 90% 1.2 mph ESE1.9 kmh ESE 2.0 mph3.2 kmh 29.98 in1015.2 mb 0.00 in0.0 mm 0.00 in0.0 mm 0.00 in0.0 mm
02:18 AM 41.4°F5.2°C 38.7°F3.7°C 90% 2.2 mph SW3.5 kmh SW 3.0 mph4.8 kmh 29.99 in1015.6 mb 0.00 in0.0 mm 0.00 in0.0 mm 0.00 in0.0 mm
02:12 AM 41.4°F5.2°C 38.7°F3.7°C 90% 1.5 mph SE2.4 kmh SE 2.0 mph3.2 kmh 29.99 in1015.6 mb 0.00 in0.0 mm 0.00 in0.0 mm 0.00 in0.0 mm
02:06 AM 41.5°F5.3°C 38.4°F3.6°C 89% 1.8 mph S2.9 kmh S 3.0 mph4.8 kmh 29.99 in1015.6 mb 0.00 in0.0 mm 0.00 in0.0 mm 0.00 in0.0 mm
02:00 AM 41.5°F5.3°C 38.2°F3.4°C 88% 2.6 mph S4.2 kmh S 4.0 mph6.4 kmh 29.99 in1015.6 mb 0.00 in0.0 mm 0.00 in0.0 mm 0.00 in0.0 mm
01:54 AM 41.7°F5.4°C 38.4°F3.6°C 88% 2.2 mph SSW3.5 kmh SSW 3.0 mph4.8 kmh 29.99 in1015.6 mb 0.00 in0.0 mm 0.00 in0.0 mm 0.00 in0.0 mm
01:48 AM 41.5°F5.3°C 38.2°F3.4°C 88% 3.0 mph SSE4.8 kmh SSE 6.0 mph9.7 kmh 29.99 in1015.6 mb 0.00 in0.0 mm 0.00 in0.0 mm 0.00 in0.0 mm
01:42 AM 41.5°F5.3°C 38.2°F3.4°C 88% 3.0 mph S4.8 kmh S 4.0 mph6.4 kmh 29.99 in1015.6 mb 0.00 in0.0 mm 0.00 in0.0 mm 0.00 in0.0 mm
01:36 AM 41.5°F5.3°C 38.2°F3.4°C 88% 2.3 mph S3.7 kmh S 3.0 mph4.8 kmh 29.99 in1015.6 mb 0.00 in0.0 mm 0.00 in0.0 mm 0.00 in0.0 mm
01:30 AM 41.5°F5.3°C 38.2°F3.4°C 88% 2.0 mph SSE3.2 kmh SSE 3.0 mph4.8 kmh 29.99 in1015.6 mb 0.00 in0.0 mm 0.00 in0.0 mm 0.00 in0.0 mm
01:24 AM 41.5°F5.3°C 38.2°F3.4°C 88% 2.8 mph SE4.5 kmh SE 4.0 mph6.4 kmh 29.99 in1015.6 mb 0.00 in0.0 mm 0.00 in0.0 mm 0.00 in0.0 mm
01:18 AM 41.5°F5.3°C 38.2°F3.4°C 88% 1.9 mph S3.1 kmh S 3.0 mph4.8 kmh 30.00 in1015.9 mb 0.00 in0.0 mm 0.00 in0.0 mm 0.00 in0.0 mm
01:12 AM 41.5°F5.3°C 38.2°F3.4°C 88% 2.0 mph S3.2 kmh S 3.0 mph4.8 kmh 30.00 in1015.9 mb 0.00 in0.0 mm 0.00 in0.0 mm 0.00 in0.0 mm
01:06 AM 41.5°F5.3°C 38.2°F3.4°C 88% 2.7 mph S4.3 kmh S 4.0 mph6.4 kmh 29.99 in1015.6 mb 0.00 in0.0 mm 0.00 in0.0 mm 0.00 in0.0 mm
01:00 AM 41.5°F5.3°C 38.2°F3.4°C 88% 2.3 mph S3.7 kmh S 3.0 mph4.8 kmh 29.99 in1015.6 mb 0.00 in0.0 mm 0.00 in0.0 mm 0.00 in0.0 mm
12:54 AM 41.5°F5.3°C 38.2°F3.4°C 88% 2.2 mph SE3.5 kmh SE 3.0 mph4.8 kmh 29.99 in1015.6 mb 0.00 in0.0 mm 0.00 in0.0 mm 0.00 in0.0 mm
12:48 AM 41.6°F5.3°C 38.3°F3.5°C 88% 1.8 mph S2.9 kmh S 2.0 mph3.2 kmh 30.00 in1015.9 mb 0.00 in0.0 mm 0.00 in0.0 mm 0.00 in0.0 mm
12:42 AM 41.7°F5.4°C 38.4°F3.6°C 88% 2.3 mph S3.7 kmh S 3.0 mph4.8 kmh 30.00 in1015.9 mb 0.00 in0.0 mm 0.00 in0.0 mm 0.00 in0.0 mm
12:36 AM 41.7°F5.4°C 38.4°F3.6°C 88% 2.2 mph S3.5 kmh S 3.0 mph4.8 kmh 30.00 in1015.9 mb 0.00 in0.0 mm 0.00 in0.0 mm 0.00 in0.0 mm
12:30 AM 41.7°F5.4°C 38.4°F3.6°C 88% 2.2 mph SE3.5 kmh SE 4.0 mph6.4 kmh 29.99 in1015.6 mb 0.00 in0.0 mm 0.00 in0.0 mm 0.00 in0.0 mm
12:24 AM 41.9°F5.5°C 38.6°F3.7°C 88% 2.2 mph SE3.5 kmh SE 3.0 mph4.8 kmh 30.00 in1015.9 mb 0.00 in0.0 mm 0.00 in0.0 mm 0.00 in0.0 mm
12:18 AM 41.9°F5.5°C 38.6°F3.7°C 88% 2.2 mph S3.5 kmh S 3.0 mph4.8 kmh 29.99 in1015.6 mb 0.00 in0.0 mm 0.00 in0.0 mm 0.00 in0.0 mm
12:12 AM 41.9°F5.5°C 38.6°F3.7°C 88% 2.0 mph S3.2 kmh S 2.0 mph3.2 kmh 30.00 in1015.9 mb 0.00 in0.0 mm 0.00 in0.0 mm 0.00 in0.0 mm
12:06 AM 41.9°F5.5°C 38.6°F3.7°C 88% 3.2 mph S5.1 kmh S 6.0 mph9.7 kmh 30.00 in1015.9 mb 0.00 in0.0 mm 0.00 in0.0 mm 0.00 in0.0 mm
12:00 AM 41.9°F5.5°C 38.6°F3.7°C 88% 1.9 mph S3.1 kmh S 3.0 mph4.8 kmh 30.00 in1015.9 mb 0.00 in0.0 mm 0.00 in0.0 mm 0.00 in0.0 mm